createdAt,value
2023-05-16T00:01:01.282Z,90649.03
2023-05-16T00:03:27.930Z,90642.28
2023-05-16T00:05:54.463Z,90645.56
2023-05-16T00:08:20.774Z,90638.53
2023-05-16T00:10:47.195Z,90634.84
2023-05-16T00:13:13.607Z,90628.44
2023-05-16T00:15:39.921Z,90642.28
2023-05-16T00:18:06.544Z,90636.38
2023-05-16T00:20:32.879Z,90637.38
2023-05-16T00:23:01.952Z,90633.53
2023-05-16T00:25:28.738Z,90625.88
2023-05-16T00:27:55.063Z,90620.72
2023-05-16T00:30:22.664Z,90621.50
2023-05-16T00:32:49.011Z,90630.63
2023-05-16T00:35:15.436Z,90632.50
2023-05-16T00:37:41.735Z,90624.88
2023-05-16T00:40:08.317Z,90625.81
2023-05-16T00:42:34.626Z,90630.03
2023-05-16T00:45:00.910Z,90621.31
2023-05-16T00:47:27.207Z,90632.13
2023-05-16T00:49:53.830Z,90628.72
2023-05-16T00:52:20.466Z,90630.53
2023-05-16T00:54:46.850Z,90626.06
2023-05-16T00:57:13.140Z,90627.91
2023-05-16T00:59:40.191Z,90622.97
2023-05-16T01:02:06.478Z,90629.88
2023-05-16T01:04:32.774Z,90622.34
2023-05-16T01:06:59.058Z,90616.66
2023-05-16T01:09:25.403Z,90611.28
2023-05-16T01:11:54.694Z,90616.31
2023-05-16T01:14:39.803Z,90614.97
2023-05-16T01:17:28.182Z,90611.00
2023-05-16T01:19:57.462Z,90619.81
2023-05-16T01:22:26.753Z,90615.94
2023-05-16T01:24:52.967Z,90612.97
2023-05-16T01:27:19.279Z,90612.78
2023-05-16T01:29:46.046Z,90616.38
2023-05-16T01:32:14.341Z,90610.31
2023-05-16T01:34:41.127Z,90610.13
2023-05-16T01:37:09.724Z,90598.97
2023-05-16T01:39:44.307Z,90601.78
2023-05-16T01:42:12.849Z,90599.44
2023-05-16T01:44:54.298Z,90594.59
2023-05-16T01:47:20.716Z,90603.38
2023-05-16T01:49:51.182Z,90604.66
2023-05-16T01:52:24.703Z,90597.88
2023-05-16T01:54:50.992Z,90596.88
2023-05-16T01:57:17.354Z,90596.16
2023-05-16T01:59:43.642Z,90600.22
2023-05-16T02:02:09.954Z,90599.53
2023-05-16T02:04:36.242Z,90597.97
2023-05-16T02:07:02.648Z,90605.09
2023-05-16T02:09:28.967Z,90604.47
2023-05-16T02:11:55.309Z,90602.31
2023-05-16T02:14:21.699Z,90599.16
2023-05-16T02:16:48.232Z,90601.81
2023-05-16T02:19:14.773Z,90599.16
2023-05-16T02:21:41.184Z,90598.38
2023-05-16T02:24:07.451Z,90593.69
2023-05-16T02:26:33.729Z,90591.63
2023-05-16T02:29:00.022Z,90592.81
2023-05-16T02:31:27.139Z,90596.00
2023-05-16T02:33:53.627Z,90594.63
2023-05-16T02:36:20.117Z,90597.66
2023-05-16T02:38:46.574Z,90601.97
2023-05-16T02:41:12.932Z,90596.22
2023-05-16T02:43:39.347Z,90591.25
2023-05-16T02:46:05.985Z,90591.00
2023-05-16T02:48:32.290Z,90588.13
2023-05-16T02:50:58.573Z,90585.94
2023-05-16T02:53:24.913Z,90579.84
2023-05-16T02:55:51.192Z,90582.16
2023-05-16T02:58:17.478Z,90585.97
2023-05-16T03:00:44.021Z,90584.44
2023-05-16T03:03:10.452Z,90575.19
2023-05-16T03:05:37.417Z,90577.38
2023-05-16T03:08:03.688Z,90573.91
2023-05-16T03:10:29.967Z,90578.25
2023-05-16T03:12:56.292Z,90575.84
2023-05-16T03:15:22.617Z,90576.44
2023-05-16T03:17:48.972Z,90576.22
2023-05-16T03:20:15.431Z,90572.25
2023-05-16T03:22:41.776Z,90566.56
2023-05-16T03:25:08.191Z,90574.44
2023-05-16T03:27:34.574Z,90570.22
2023-05-16T03:30:00.870Z,90566.53
2023-05-16T03:32:27.198Z,90567.16
2023-05-16T03:34:53.503Z,90558.97
2023-05-16T03:37:19.794Z,90566.63
2023-05-16T03:39:46.073Z,90563.44
2023-05-16T03:42:12.480Z,90557.81
2023-05-16T03:44:38.813Z,90557.84
2023-05-16T03:47:05.092Z,90559.25
2023-05-16T03:49:31.378Z,90557.28
2023-05-16T03:51:57.710Z,90558.78
2023-05-16T03:54:24.102Z,90558.56
2023-05-16T03:56:50.430Z,90556.03
2023-05-16T03:59:16.797Z,90562.47
2023-05-16T04:01:43.507Z,90557.72
2023-05-16T04:04:09.847Z,90563.03
2023-05-16T04:06:36.196Z,90562.94
2023-05-16T04:09:02.474Z,90557.94
2023-05-16T04:11:28.819Z,90558.75
2023-05-16T04:13:55.632Z,90563.75
2023-05-16T04:16:21.999Z,90555.34
2023-05-16T04:18:48.374Z,90564.06
2023-05-16T04:21:15.289Z,90562.81
2023-05-16T04:23:41.778Z,90563.03
2023-05-16T04:26:08.595Z,90559.88
2023-05-16T04:28:34.948Z,90561.63
2023-05-16T04:31:01.859Z,90560.41
2023-05-16T04:33:28.265Z,90553.94
2023-05-16T04:35:58.571Z,90566.19
2023-05-16T04:38:24.850Z,90562.03
2023-05-16T04:40:51.767Z,90556.63
2023-05-16T04:43:18.386Z,90564.94
2023-05-16T04:45:44.793Z,90564.63
2023-05-16T04:48:12.179Z,90561.78
2023-05-16T04:50:38.483Z,90555.91
2023-05-16T04:53:04.826Z,90563.13
2023-05-16T04:55:31.467Z,90557.97
2023-05-16T04:57:57.920Z,90558.94
2023-05-16T05:00:24.379Z,90559.34
2023-05-16T05:02:50.835Z,90563.19
2023-05-16T05:05:17.266Z,90560.75
2023-05-16T05:07:43.555Z,90557.09
2023-05-16T05:10:11.554Z,90561.44
2023-05-16T05:12:37.841Z,90566.06
2023-05-16T05:15:04.679Z,90563.41
2023-05-16T05:17:31.034Z,90561.47
2023-05-16T05:19:57.392Z,90562.97
2023-05-16T05:22:23.827Z,90561.78
2023-05-16T05:24:50.126Z,90566.75
2023-05-16T05:27:16.413Z,90554.41
2023-05-16T05:29:42.751Z,90562.06
2023-05-16T05:32:09.145Z,90558.09
2023-05-16T05:34:35.589Z,90557.16
2023-05-16T05:37:01.869Z,90549.94
2023-05-16T05:39:28.238Z,90558.59
2023-05-16T05:41:54.627Z,90561.63
2023-05-16T05:44:20.962Z,90552.56
2023-05-16T05:46:47.362Z,90556.66
2023-05-16T05:49:13.681Z,90541.44
2023-05-16T05:51:39.961Z,90545.34
2023-05-16T05:54:06.351Z,90553.13
2023-05-16T05:56:32.638Z,90546.47
2023-05-16T05:58:58.939Z,90549.72
2023-05-16T06:01:25.274Z,90545.19
2023-05-16T06:03:51.885Z,90544.50
2023-05-16T06:06:18.195Z,90548.66
2023-05-16T06:08:44.517Z,90543.69
2023-05-16T06:11:10.816Z,90554.59
2023-05-16T06:13:37.131Z,90543.78
2023-05-16T06:16:03.517Z,90536.72
2023-05-16T06:18:29.932Z,90538.06
2023-05-16T06:20:56.264Z,90545.06
2023-05-16T06:23:22.556Z,90533.72
2023-05-16T06:25:48.852Z,90536.25
2023-05-16T06:28:15.231Z,90536.81
2023-05-16T06:30:41.558Z,90536.03
2023-05-16T06:33:07.990Z,90536.75
2023-05-16T06:35:34.319Z,90540.09
2023-05-16T06:38:00.621Z,90533.03
2023-05-16T06:40:26.905Z,90524.72
2023-05-16T06:42:53.331Z,90524.47
2023-05-16T06:45:19.772Z,90514.34
2023-05-16T06:47:46.156Z,90519.84
2023-05-16T06:50:12.578Z,90520.03
2023-05-16T06:52:38.904Z,90526.84
2023-05-16T06:55:05.775Z,90517.50
2023-05-16T06:57:32.120Z,90516.06
2023-05-16T06:59:58.460Z,90504.72
2023-05-16T07:02:24.853Z,90505.78
2023-05-16T07:04:51.486Z,90508.06
2023-05-16T07:07:17.834Z,90517.44
2023-05-16T07:09:44.171Z,90508.00
2023-05-16T07:12:10.559Z,90506.31
2023-05-16T07:14:36.921Z,90501.34
2023-05-16T07:17:03.799Z,90499.88
2023-05-16T07:19:30.437Z,90512.13
2023-05-16T07:21:56.832Z,90517.41
2023-05-16T07:24:23.210Z,90506.91
2023-05-16T07:26:49.975Z,90522.72
2023-05-16T07:29:16.439Z,90523.09
2023-05-16T07:31:42.805Z,90513.63
2023-05-16T07:34:09.655Z,90514.25
2023-05-16T07:36:36.016Z,90515.69
2023-05-16T07:39:02.405Z,90511.38
2023-05-16T07:41:29.341Z,90524.34
2023-05-16T07:43:55.692Z,90520.44
2023-05-16T07:46:22.074Z,90516.88
2023-05-16T07:48:48.471Z,90518.94
2023-05-16T07:51:14.790Z,90524.91
2023-05-16T07:53:41.975Z,90527.25
2023-05-16T07:56:08.719Z,90524.47
2023-05-16T07:58:35.155Z,90530.19
2023-05-16T08:01:01.684Z,90520.38
2023-05-16T08:03:28.250Z,90522.38
2023-05-16T08:05:54.806Z,90521.03
2023-05-16T08:08:21.568Z,90520.94
2023-05-16T08:10:48.062Z,90511.44
2023-05-16T08:13:14.428Z,90516.50
2023-05-16T08:15:40.874Z,90519.53
2023-05-16T08:18:08.465Z,90515.22
2023-05-16T08:20:34.839Z,90513.47
2023-05-16T08:23:01.212Z,90510.38
2023-05-16T08:25:27.936Z,90512.09
2023-05-16T08:27:54.495Z,90507.38
2023-05-16T08:30:21.047Z,90509.78
2023-05-16T08:32:47.651Z,90512.69
2023-05-16T08:35:14.327Z,90510.84
2023-05-16T08:37:40.765Z,90519.81
2023-05-16T08:40:08.222Z,90513.81
2023-05-16T08:42:34.826Z,90513.50
2023-05-16T08:45:01.322Z,90501.44
2023-05-16T08:47:27.712Z,90502.34
2023-05-16T08:49:54.196Z,90498.09
2023-05-16T08:52:21.235Z,90500.72
2023-05-16T08:54:55.264Z,90503.34
2023-05-16T08:57:33.011Z,90506.56
2023-05-16T08:59:59.854Z,90496.84
2023-05-16T09:02:26.825Z,90498.78
2023-05-16T09:04:53.270Z,90506.63
2023-05-16T09:07:19.633Z,90504.28
2023-05-16T09:09:46.008Z,90503.91
2023-05-16T09:12:12.343Z,90500.81
2023-05-16T09:14:38.745Z,90503.31
2023-05-16T09:17:05.868Z,90494.06
2023-05-16T09:19:39.563Z,90511.63
2023-05-16T09:22:06.840Z,90509.81
2023-05-16T09:24:33.167Z,90509.09
2023-05-16T09:27:07.125Z,90505.00
2023-05-16T09:29:36.065Z,90503.41
2023-05-16T09:32:12.560Z,90501.72
2023-05-16T09:34:40.055Z,90504.81
2023-05-16T09:37:06.394Z,90505.75
2023-05-16T09:39:32.737Z,90502.19
2023-05-16T09:41:59.194Z,90505.88
2023-05-16T09:44:25.635Z,90502.97
2023-05-16T09:46:53.678Z,90507.59
2023-05-16T09:49:20.036Z,90495.81
2023-05-16T09:51:46.465Z,90497.22
2023-05-16T09:54:13.058Z,90488.19
2023-05-16T09:56:49.128Z,90485.88
2023-05-16T09:59:15.521Z,90494.53
2023-05-16T10:01:41.904Z,90491.00
2023-05-16T10:04:10.579Z,90488.88
2023-05-16T10:06:37.504Z,90480.84
2023-05-16T10:09:03.908Z,90489.06
2023-05-16T10:11:30.354Z,90475.19
2023-05-16T10:13:56.918Z,90469.66
2023-05-16T10:16:23.828Z,90475.19
2023-05-16T10:18:50.246Z,90485.53
2023-05-16T10:21:16.917Z,90490.59
2023-05-16T10:23:43.757Z,90473.38
2023-05-16T10:26:10.263Z,90470.84
2023-05-16T10:28:36.749Z,90467.72
2023-05-16T10:31:03.132Z,90474.03
2023-05-16T10:33:29.758Z,90470.94
2023-05-16T10:35:56.086Z,90453.94
2023-05-16T10:38:23.906Z,90466.16
2023-05-16T10:40:50.317Z,90459.63
2023-05-16T10:43:26.876Z,90449.78
2023-05-16T10:45:56.736Z,90457.00
2023-05-16T10:48:36.113Z,90457.84
2023-05-16T10:51:03.226Z,90447.94
2023-05-16T10:53:33.331Z,90457.69
2023-05-16T10:55:59.711Z,90450.13
2023-05-16T10:58:38.065Z,90448.25
2023-05-16T11:01:17.209Z,90447.81
2023-05-16T11:03:59.313Z,90442.31
2023-05-16T11:06:32.686Z,90438.38
2023-05-16T11:09:07.945Z,90438.13
2023-05-16T11:11:44.332Z,90440.91
2023-05-16T11:14:23.124Z,90434.97
2023-05-16T11:16:54.691Z,90435.78
2023-05-16T11:19:39.631Z,90431.53
2023-05-16T11:22:07.178Z,90435.06
2023-05-16T11:24:34.888Z,90442.44
2023-05-16T11:27:01.388Z,90426.41
2023-05-16T11:29:34.417Z,90420.19
2023-05-16T11:32:01.155Z,90417.94
2023-05-16T11:34:27.577Z,90430.44
2023-05-16T11:36:53.940Z,90432.03
2023-05-16T11:39:20.491Z,90428.59
2023-05-16T11:41:48.747Z,90422.44
2023-05-16T11:44:15.424Z,90417.53
2023-05-16T11:46:41.873Z,90431.59
2023-05-16T11:49:11.482Z,90432.22
2023-05-16T11:51:41.069Z,90433.72
2023-05-16T11:54:07.785Z,90437.16
2023-05-16T11:56:35.394Z,90442.19
2023-05-16T11:59:01.754Z,90439.44
2023-05-16T12:01:37.787Z,90447.38
2023-05-16T12:04:11.627Z,90451.81
2023-05-16T12:06:43.161Z,90435.34
2023-05-16T12:09:12.371Z,90446.00
2023-05-16T12:11:38.744Z,90445.00
2023-05-16T12:14:05.678Z,90446.50
2023-05-16T12:16:32.786Z,90453.50
2023-05-16T12:18:59.394Z,90458.94
2023-05-16T12:21:26.368Z,90458.97
2023-05-16T12:23:55.298Z,90449.16
2023-05-16T12:26:30.573Z,90452.91
2023-05-16T12:29:00.479Z,90450.69
2023-05-16T12:31:30.998Z,90440.44
2023-05-16T12:33:58.737Z,90444.53
2023-05-16T12:36:26.198Z,90440.97
2023-05-16T12:38:52.896Z,90451.44
2023-05-16T12:41:19.893Z,90450.41
2023-05-16T12:43:46.245Z,90445.72
2023-05-16T12:46:12.673Z,90444.78
2023-05-16T12:48:45.597Z,90439.91
2023-05-16T12:51:13.709Z,90436.97
2023-05-16T12:53:57.538Z,90430.25
2023-05-16T12:56:28.230Z,90435.78
2023-05-16T12:58:54.600Z,90431.94
2023-05-16T13:01:20.991Z,90424.78
2023-05-16T13:03:47.395Z,90428.44
2023-05-16T13:06:13.874Z,90434.09
2023-05-16T13:08:40.267Z,90435.84
2023-05-16T13:11:06.709Z,90432.28
2023-05-16T13:13:36.505Z,90434.31
2023-05-16T13:16:04.264Z,90440.03
2023-05-16T13:18:31.318Z,90444.09
2023-05-16T13:20:57.840Z,90438.66
2023-05-16T13:23:24.181Z,90445.84
2023-05-16T13:25:52.561Z,90451.38
2023-05-16T13:28:18.953Z,90440.22
2023-05-16T13:30:45.362Z,90451.88
2023-05-16T13:33:11.758Z,90463.16
2023-05-16T13:35:38.272Z,90454.66
2023-05-16T13:38:04.585Z,90451.16
2023-05-16T13:40:30.948Z,90450.00
2023-05-16T13:42:57.412Z,90456.63
2023-05-16T13:45:23.749Z,90450.06
2023-05-16T13:47:50.320Z,90455.53
2023-05-16T13:50:16.695Z,90454.41
2023-05-16T13:52:43.907Z,90450.38
2023-05-16T13:55:10.262Z,90455.22
2023-05-16T13:57:36.626Z,90453.78
2023-05-16T14:00:27.961Z,90469.63
2023-05-16T14:02:55.064Z,90457.91
2023-05-16T14:05:21.436Z,90463.03
2023-05-16T14:07:47.862Z,90460.25
2023-05-16T14:10:14.229Z,90450.31
2023-05-16T14:12:40.774Z,90451.50
2023-05-16T14:15:07.672Z,90441.41
2023-05-16T14:17:34.133Z,90438.72
2023-05-16T14:20:00.556Z,90443.38
2023-05-16T14:22:28.633Z,90435.97
2023-05-16T14:24:54.961Z,90442.28
2023-05-16T14:27:21.332Z,90453.38
2023-05-16T14:29:48.792Z,90455.22
2023-05-16T14:32:15.249Z,90461.25
2023-05-16T14:34:41.772Z,90465.81
2023-05-16T14:37:10.221Z,90452.28
2023-05-16T14:39:36.582Z,90461.63
2023-05-16T14:42:02.935Z,90461.97
2023-05-16T14:44:29.346Z,90459.47
2023-05-16T14:46:55.746Z,90460.28
2023-05-16T14:49:22.057Z,90480.47
2023-05-16T14:51:50.406Z,90459.75
2023-05-16T14:54:16.961Z,90465.09
2023-05-16T14:56:44.727Z,90459.88
2023-05-16T14:59:11.071Z,90464.81
2023-05-16T15:01:37.747Z,90461.50
2023-05-16T15:04:04.363Z,90464.31
2023-05-16T15:06:31.070Z,90461.53
2023-05-16T15:08:57.392Z,90466.03
2023-05-16T15:11:23.803Z,90475.16
2023-05-16T15:13:50.260Z,90469.75
2023-05-16T15:16:16.767Z,90475.88
2023-05-16T15:18:43.631Z,90468.84
2023-05-16T15:21:10.128Z,90479.31
2023-05-16T15:23:36.611Z,90486.69
2023-05-16T15:26:03.122Z,90494.34
2023-05-16T15:28:31.220Z,90490.97
2023-05-16T15:30:57.542Z,90483.19
2023-05-16T15:33:23.898Z,90485.97
2023-05-16T15:35:50.352Z,90487.94
2023-05-16T15:38:16.680Z,90487.78
2023-05-16T15:40:43.012Z,90491.53
2023-05-16T15:43:09.339Z,90484.88
2023-05-16T15:45:39.292Z,90494.41
2023-05-16T15:48:07.415Z,90503.63
2023-05-16T15:50:34.312Z,90500.56
2023-05-16T15:53:01.031Z,90497.13
2023-05-16T15:55:27.831Z,90503.56
2023-05-16T15:57:57.158Z,90508.28
2023-05-16T16:00:24.046Z,90508.75
2023-05-16T16:02:50.506Z,90510.06
2023-05-16T16:05:16.892Z,90506.44
2023-05-16T16:07:43.333Z,90506.63
2023-05-16T16:10:09.882Z,90507.22
2023-05-16T16:12:37.052Z,90510.72
2023-05-16T16:15:06.433Z,90521.00
2023-05-16T16:17:33.128Z,90515.13
2023-05-16T16:19:59.530Z,90513.59
2023-05-16T16:22:25.940Z,90510.34
2023-05-16T16:24:52.768Z,90515.59
2023-05-16T16:27:19.156Z,90519.16
2023-05-16T16:29:45.520Z,90519.06
2023-05-16T16:32:11.845Z,90517.28
2023-05-16T16:34:38.169Z,90525.09
2023-05-16T16:37:04.549Z,90519.66
2023-05-16T16:39:33.048Z,90526.56
2023-05-16T16:41:59.793Z,90532.84
2023-05-16T16:44:26.181Z,90537.59
2023-05-16T16:46:52.594Z,90536.59
2023-05-16T16:49:19.116Z,90541.72
2023-05-16T16:57:02.165Z,90543.63
2023-05-16T16:59:28.521Z,90550.28
2023-05-16T17:01:54.954Z,90551.97
2023-05-16T17:04:21.350Z,90553.34
2023-05-16T17:06:48.847Z,90556.97
2023-05-16T17:09:17.783Z,90560.41
2023-05-16T17:11:46.541Z,90568.19
2023-05-16T17:14:14.247Z,90561.09
2023-05-16T17:16:43.584Z,90564.75
2023-05-16T17:19:09.940Z,90562.53
2023-05-16T17:21:37.066Z,90556.81
2023-05-16T17:24:03.604Z,90560.78
2023-05-16T17:26:30.043Z,90559.22
2023-05-16T17:28:56.590Z,90574.31
2023-05-16T17:31:22.925Z,90580.91
2023-05-16T17:33:49.322Z,90578.72
2023-05-16T17:36:15.823Z,90580.19
2023-05-16T17:38:42.156Z,90566.91
2023-05-16T17:41:08.507Z,90576.16
2023-05-16T17:43:34.854Z,90573.97
2023-05-16T17:46:01.384Z,90578.16
2023-05-16T17:48:27.822Z,90587.88
2023-05-16T17:50:54.189Z,90587.94
2023-05-16T17:53:20.910Z,90587.69
2023-05-16T17:55:47.309Z,90590.72
2023-05-16T17:58:13.660Z,90593.03
2023-05-16T18:00:40.000Z,90598.31
2023-05-16T18:03:06.826Z,90603.22
2023-05-16T18:05:33.357Z,90596.28
2023-05-16T18:07:59.702Z,90597.50
2023-05-16T18:10:29.462Z,90597.13
2023-05-16T18:13:00.297Z,90594.16
2023-05-16T18:15:26.770Z,90600.69
2023-05-16T18:17:53.271Z,90607.16
2023-05-16T18:20:19.832Z,90606.56
2023-05-16T18:22:46.233Z,90610.34
2023-05-16T18:25:12.688Z,90614.22
2023-05-16T18:27:39.359Z,90620.88
2023-05-16T18:30:05.890Z,90621.84
2023-05-16T18:32:32.431Z,90626.13
2023-05-16T18:34:58.818Z,90620.56
2023-05-16T18:37:25.264Z,90632.22
2023-05-16T18:39:51.688Z,90631.09
2023-05-16T18:42:18.554Z,90635.38
2023-05-16T18:44:44.946Z,90640.13
2023-05-16T18:47:11.597Z,90641.72
2023-05-16T18:49:40.898Z,90642.31
2023-05-16T18:52:08.230Z,90642.88
2023-05-16T18:54:34.983Z,90643.44
2023-05-16T18:57:02.061Z,90640.31
2023-05-16T18:59:28.411Z,90640.19
2023-05-16T19:01:54.726Z,90643.41
2023-05-16T19:04:21.184Z,90654.84
2023-05-16T19:06:48.688Z,90653.34
2023-05-16T19:09:15.076Z,90659.84
2023-05-16T19:11:41.429Z,90656.97
2023-05-16T19:14:08.207Z,90650.16
2023-05-16T19:16:34.576Z,90658.72
2023-05-16T19:19:01.187Z,90660.47
2023-05-16T19:21:27.640Z,90665.44
2023-05-16T19:23:54.044Z,90668.00
2023-05-16T19:26:20.497Z,90669.72
2023-05-16T19:28:46.827Z,90667.75
2023-05-16T19:31:13.217Z,90676.31
2023-05-16T19:33:39.540Z,90681.66
2023-05-16T19:36:06.022Z,90683.81
2023-05-16T19:38:32.375Z,90679.19
2023-05-16T19:40:59.793Z,90686.25
2023-05-16T19:43:26.111Z,90690.44
2023-05-16T19:45:52.492Z,90690.31
2023-05-16T19:48:19.037Z,90703.38
2023-05-16T19:50:46.024Z,90691.25
2023-05-16T19:53:12.348Z,90694.13
2023-05-16T19:55:38.974Z,90697.00
2023-05-16T19:58:05.309Z,90704.72
2023-05-16T20:00:31.676Z,90706.25
2023-05-16T20:02:58.239Z,90706.53
2023-05-16T20:05:24.668Z,90719.63
2023-05-16T20:07:52.730Z,90716.00
2023-05-16T20:10:21.200Z,90722.97
2023-05-16T20:12:50.080Z,90723.03
2023-05-16T20:15:16.506Z,90730.56
2023-05-16T20:17:42.925Z,90727.66
2023-05-16T20:20:09.436Z,90731.59
2023-05-16T20:22:38.593Z,90734.28
2023-05-16T20:25:05.931Z,90729.41
2023-05-16T20:27:32.284Z,90733.38
2023-05-16T20:29:58.593Z,90735.78
2023-05-16T20:32:24.924Z,90739.13
2023-05-16T20:34:51.295Z,90739.22
2023-05-16T20:37:17.638Z,90746.22
2023-05-16T20:39:43.968Z,90747.50
2023-05-16T20:42:12.071Z,90743.84
2023-05-16T20:44:38.758Z,90753.88
2023-05-16T20:47:05.709Z,90744.16
2023-05-16T20:49:32.108Z,90753.09
2023-05-16T20:51:58.476Z,90756.31
2023-05-16T20:54:24.942Z,90752.03
2023-05-16T20:56:51.287Z,90757.03
2023-05-16T20:59:17.678Z,90763.63
2023-05-16T21:01:44.010Z,90762.75
2023-05-16T21:04:10.365Z,90764.50
2023-05-16T21:06:36.780Z,90756.41
2023-05-16T21:09:04.681Z,90751.47
2023-05-16T21:11:32.875Z,90752.03
2023-05-16T21:13:59.495Z,90753.53
2023-05-16T21:16:25.862Z,90746.63
2023-05-16T21:18:52.382Z,90754.50
2023-05-16T21:21:18.892Z,90752.41
2023-05-16T21:23:45.236Z,90755.91
2023-05-16T21:26:11.696Z,90750.44
2023-05-16T21:28:46.074Z,90759.59
2023-05-16T21:31:20.634Z,90764.53
2023-05-16T21:33:47.129Z,90767.19
2023-05-16T21:36:13.568Z,90773.81
2023-05-16T21:38:39.893Z,90776.34
2023-05-16T21:41:06.280Z,90769.66
2023-05-16T21:43:32.596Z,90779.91
2023-05-16T21:45:58.932Z,90778.91
2023-05-16T21:48:25.318Z,90777.88
2023-05-16T21:50:51.761Z,90792.69
2023-05-16T21:53:19.022Z,90787.56
2023-05-16T21:55:45.410Z,90798.13
2023-05-16T21:58:11.729Z,90793.41
2023-05-16T22:00:38.048Z,90789.44
2023-05-16T22:03:04.509Z,90793.03
2023-05-16T22:05:31.384Z,90795.25
2023-05-16T22:07:57.723Z,90793.25
2023-05-16T22:10:24.100Z,90793.44
2023-05-16T22:12:50.527Z,90804.25
2023-05-16T22:15:16.863Z,90802.66
2023-05-16T22:17:43.229Z,90800.47
2023-05-16T22:20:09.762Z,90798.72
2023-05-16T22:22:36.228Z,90796.28
2023-05-16T22:25:03.746Z,90801.81
2023-05-16T22:27:30.073Z,90799.81
2023-05-16T22:29:56.412Z,90805.22
2023-05-16T22:32:22.753Z,90796.69
2023-05-16T22:34:49.096Z,90797.50
2023-05-16T22:37:15.443Z,90799.44
2023-05-16T22:39:41.795Z,90803.56
2023-05-16T22:42:08.120Z,90797.50
2023-05-16T22:44:34.445Z,90806.31
2023-05-16T22:47:00.772Z,90803.78
2023-05-16T22:49:27.169Z,90805.91
2023-05-16T22:51:53.518Z,90809.28
2023-05-16T22:54:19.822Z,90806.63
2023-05-16T22:56:46.244Z,90809.31
2023-05-16T22:59:12.580Z,90810.00
2023-05-16T23:01:38.917Z,90815.16
2023-05-16T23:04:05.575Z,90812.38
2023-05-16T23:06:32.551Z,90808.16
2023-05-16T23:09:00.401Z,90812.63
2023-05-16T23:11:26.757Z,90807.97
2023-05-16T23:13:53.406Z,90809.66
2023-05-16T23:16:19.811Z,90809.13
2023-05-16T23:18:46.214Z,90813.22
2023-05-16T23:21:12.658Z,90807.19
2023-05-16T23:23:38.959Z,90814.13
2023-05-16T23:26:05.403Z,90814.19
2023-05-16T23:28:31.777Z,90815.03
2023-05-16T23:30:58.180Z,90805.00
2023-05-16T23:33:24.553Z,90814.50
2023-05-16T23:35:51.150Z,90814.66
2023-05-16T23:38:17.580Z,90822.06
2023-05-16T23:40:43.910Z,90820.41
2023-05-16T23:43:10.338Z,90826.56
2023-05-16T23:45:37.369Z,90819.84
2023-05-16T23:48:03.909Z,90829.59
2023-05-16T23:50:30.344Z,90826.41
2023-05-16T23:52:56.650Z,90820.41
2023-05-16T23:55:23.067Z,90826.94
2023-05-16T23:57:49.402Z,90825.28
